sensor_id;sensor_type;location;lat;lon;timestamp;P1;durP1;ratioP1;P2;durP2;ratioP2
54881;SDS011;40775;51.448;4.742;2023-04-24T00:01:58;8.60;;;4.63;;
54881;SDS011;40775;51.448;4.742;2023-04-24T00:04:25;9.80;;;5.70;;
54881;SDS011;40775;51.448;4.742;2023-04-24T00:06:52;8.98;;;5.50;;
54881;SDS011;40775;51.448;4.742;2023-04-24T00:09:26;12.98;;;6.75;;
54881;SDS011;40775;51.448;4.742;2023-04-24T00:11:53;9.85;;;5.50;;
54881;SDS011;40775;51.448;4.742;2023-04-24T00:14:20;10.40;;;6.10;;
54881;SDS011;40775;51.448;4.742;2023-04-24T00:16:47;15.18;;;7.05;;
54881;SDS011;40775;51.448;4.742;2023-04-24T00:19:14;12.32;;;6.18;;
54881;SDS011;40775;51.448;4.742;2023-04-24T00:21:42;10.75;;;5.80;;
54881;SDS011;40775;51.448;4.742;2023-04-24T00:24:09;11.57;;;7.20;;
54881;SDS011;40775;51.448;4.742;2023-04-24T00:26:36;11.35;;;5.60;;
54881;SDS011;40775;51.448;4.742;2023-04-24T00:29:03;11.32;;;6.60;;
54881;SDS011;40775;51.448;4.742;2023-04-24T00:31:30;11.57;;;6.85;;
54881;SDS011;40775;51.448;4.742;2023-04-24T00:34:01;18.13;;;7.60;;
54881;SDS011;40775;51.448;4.742;2023-04-24T00:36:29;14.85;;;7.28;;
54881;SDS011;40775;51.448;4.742;2023-04-24T00:38:57;13.40;;;7.97;;
54881;SDS011;40775;51.448;4.742;2023-04-24T00:41:24;15.52;;;8.30;;
54881;SDS011;40775;51.448;4.742;2023-04-24T00:43:52;10.93;;;6.47;;
54881;SDS011;40775;51.448;4.742;2023-04-24T00:46:19;10.30;;;4.80;;
54881;SDS011;40775;51.448;4.742;2023-04-24T00:48:47;9.50;;;5.18;;
54881;SDS011;40775;51.448;4.742;2023-04-24T00:51:14;6.57;;;4.10;;
54881;SDS011;40775;51.448;4.742;2023-04-24T00:53:41;10.35;;;6.50;;
54881;SDS011;40775;51.448;4.742;2023-04-24T00:56:09;11.55;;;5.35;;
54881;SDS011;40775;51.448;4.742;2023-04-24T00:58:36;18.08;;;9.55;;
54881;SDS011;40775;51.448;4.742;2023-04-24T01:01:04;15.25;;;8.40;;
54881;SDS011;40775;51.448;4.742;2023-04-24T01:03:33;12.10;;;7.95;;
54881;SDS011;40775;51.448;4.742;2023-04-24T01:06:04;13.23;;;8.60;;
54881;SDS011;40775;51.448;4.742;2023-04-24T01:08:32;11.13;;;6.53;;
54881;SDS011;40775;51.448;4.742;2023-04-24T01:11:01;18.58;;;7.72;;
54881;SDS011;40775;51.448;4.742;2023-04-24T01:13:31;9.60;;;5.72;;
54881;SDS011;40775;51.448;4.742;2023-04-24T01:15:59;7.15;;;4.25;;
54881;SDS011;40775;51.448;4.742;2023-04-24T01:18:27;13.93;;;7.15;;
54881;SDS011;40775;51.448;4.742;2023-04-24T01:20:57;10.18;;;6.38;;
54881;SDS011;40775;51.448;4.742;2023-04-24T01:23:25;13.50;;;6.75;;
54881;SDS011;40775;51.448;4.742;2023-04-24T01:25:53;11.07;;;6.25;;
54881;SDS011;40775;51.448;4.742;2023-04-24T01:28:20;8.73;;;4.25;;
54881;SDS011;40775;51.448;4.742;2023-04-24T01:30:48;12.18;;;5.93;;
54881;SDS011;40775;51.448;4.742;2023-04-24T01:33:15;11.55;;;6.30;;
54881;SDS011;40775;51.448;4.742;2023-04-24T01:35:43;12.75;;;6.93;;
54881;SDS011;40775;51.448;4.742;2023-04-24T01:38:10;9.70;;;6.07;;
54881;SDS011;40775;51.448;4.742;2023-04-24T01:40:38;11.57;;;6.43;;
54881;SDS011;40775;51.448;4.742;2023-04-24T01:43:05;11.68;;;6.55;;
54881;SDS011;40775;51.448;4.742;2023-04-24T01:45:33;11.68;;;5.93;;
54881;SDS011;40775;51.448;4.742;2023-04-24T01:48:00;9.45;;;5.55;;
54881;SDS011;40775;51.448;4.742;2023-04-24T01:50:27;8.40;;;4.57;;
54881;SDS011;40775;51.448;4.742;2023-04-24T01:52:54;10.40;;;5.95;;
54881;SDS011;40775;51.448;4.742;2023-04-24T01:55:21;8.13;;;4.50;;
54881;SDS011;40775;51.448;4.742;2023-04-24T01:57:48;8.98;;;5.20;;
54881;SDS011;40775;51.448;4.742;2023-04-24T02:00:16;6.95;;;3.78;;
54881;SDS011;40775;51.448;4.742;2023-04-24T02:02:43;9.50;;;4.88;;
54881;SDS011;40775;51.448;4.742;2023-04-24T02:05:13;11.02;;;5.60;;
54881;SDS011;40775;51.448;4.742;2023-04-24T02:07:41;9.32;;;5.85;;
54881;SDS011;40775;51.448;4.742;2023-04-24T02:10:08;6.72;;;3.30;;
54881;SDS011;40775;51.448;4.742;2023-04-24T02:12:36;11.68;;;6.18;;
54881;SDS011;40775;51.448;4.742;2023-04-24T02:15:03;10.43;;;4.78;;
54881;SDS011;40775;51.448;4.742;2023-04-24T02:17:31;8.57;;;4.13;;
54881;SDS011;40775;51.448;4.742;2023-04-24T02:19:58;10.38;;;5.78;;
54881;SDS011;40775;51.448;4.742;2023-04-24T02:22:25;7.47;;;4.30;;
54881;SDS011;40775;51.448;4.742;2023-04-24T02:24:52;10.15;;;5.35;;
54881;SDS011;40775;51.448;4.742;2023-04-24T02:27:19;10.18;;;5.18;;
54881;SDS011;40775;51.448;4.742;2023-04-24T02:29:46;9.50;;;5.43;;
54881;SDS011;40775;51.448;4.742;2023-04-24T02:32:13;8.30;;;4.13;;
54881;SDS011;40775;51.448;4.742;2023-04-24T02:34:42;12.63;;;5.47;;
54881;SDS011;40775;51.448;4.742;2023-04-24T02:37:09;10.13;;;5.40;;
54881;SDS011;40775;51.448;4.742;2023-04-24T02:39:36;5.38;;;2.78;;
54881;SDS011;40775;51.448;4.742;2023-04-24T02:42:03;6.38;;;3.25;;
54881;SDS011;40775;51.448;4.742;2023-04-24T02:44:30;7.95;;;4.07;;
54881;SDS011;40775;51.448;4.742;2023-04-24T02:46:57;10.02;;;5.15;;
54881;SDS011;40775;51.448;4.742;2023-04-24T02:49:24;9.82;;;4.95;;
54881;SDS011;40775;51.448;4.742;2023-04-24T02:51:52;5.68;;;3.08;;
54881;SDS011;40775;51.448;4.742;2023-04-24T02:54:19;8.23;;;4.85;;
54881;SDS011;40775;51.448;4.742;2023-04-24T02:56:46;11.20;;;6.15;;
54881;SDS011;40775;51.448;4.742;2023-04-24T02:59:13;3.95;;;2.13;;
54881;SDS011;40775;51.448;4.742;2023-04-24T03:01:40;7.93;;;5.10;;
54881;SDS011;40775;51.448;4.742;2023-04-24T03:04:07;4.57;;;2.58;;
54881;SDS011;40775;51.448;4.742;2023-04-24T03:06:34;12.00;;;5.38;;
54881;SDS011;40775;51.448;4.742;2023-04-24T03:09:02;6.60;;;4.03;;
54881;SDS011;40775;51.448;4.742;2023-04-24T03:11:29;5.47;;;2.75;;
54881;SDS011;40775;51.448;4.742;2023-04-24T03:13:56;7.85;;;4.35;;
54881;SDS011;40775;51.448;4.742;2023-04-24T03:16:23;8.13;;;5.28;;
54881;SDS011;40775;51.448;4.742;2023-04-24T03:18:50;9.52;;;5.05;;
54881;SDS011;40775;51.448;4.742;2023-04-24T03:21:18;9.23;;;5.20;;
54881;SDS011;40775;51.448;4.742;2023-04-24T03:23:45;9.40;;;4.45;;
54881;SDS011;40775;51.448;4.742;2023-04-24T03:26:12;10.07;;;4.22;;
54881;SDS011;40775;51.448;4.742;2023-04-24T03:28:39;7.75;;;3.95;;
54881;SDS011;40775;51.448;4.742;2023-04-24T03:31:07;5.43;;;3.22;;
54881;SDS011;40775;51.448;4.742;2023-04-24T03:33:34;8.45;;;3.88;;
54881;SDS011;40775;51.448;4.742;2023-04-24T03:36:02;11.85;;;3.65;;
54881;SDS011;40775;51.448;4.742;2023-04-24T03:38:31;7.65;;;4.25;;
54881;SDS011;40775;51.448;4.742;2023-04-24T03:40:58;6.95;;;3.65;;
54881;SDS011;40775;51.448;4.742;2023-04-24T03:43:25;7.55;;;3.45;;
54881;SDS011;40775;51.448;4.742;2023-04-24T03:45:53;6.78;;;3.63;;
54881;SDS011;40775;51.448;4.742;2023-04-24T03:48:20;7.18;;;3.60;;
54881;SDS011;40775;51.448;4.742;2023-04-24T03:50:47;6.43;;;4.05;;
54881;SDS011;40775;51.448;4.742;2023-04-24T03:53:14;7.78;;;3.45;;
54881;SDS011;40775;51.448;4.742;2023-04-24T03:55:41;3.35;;;1.95;;
54881;SDS011;40775;51.448;4.742;2023-04-24T03:58:09;4.80;;;2.28;;
54881;SDS011;40775;51.448;4.742;2023-04-24T04:00:36;4.22;;;1.90;;
54881;SDS011;40775;51.448;4.742;2023-04-24T04:03:03;3.30;;;1.58;;
54881;SDS011;40775;51.448;4.742;2023-04-24T04:05:31;2.58;;;1.33;;
54881;SDS011;40775;51.448;4.742;2023-04-24T04:07:58;3.78;;;1.55;;
54881;SDS011;40775;51.448;4.742;2023-04-24T04:10:25;3.22;;;1.58;;
54881;SDS011;40775;51.448;4.742;2023-04-24T04:12:52;3.25;;;1.35;;
54881;SDS011;40775;51.448;4.742;2023-04-24T04:15:19;3.83;;;1.25;;
54881;SDS011;40775;51.448;4.742;2023-04-24T04:17:46;1.98;;;1.02;;
54881;SDS011;40775;51.448;4.742;2023-04-24T04:20:13;0.75;;;0.45;;
54881;SDS011;40775;51.448;4.742;2023-04-24T04:22:45;1.15;;;0.77;;
54881;SDS011;40775;51.448;4.742;2023-04-24T04:25:12;1.50;;;0.57;;
54881;SDS011;40775;51.448;4.742;2023-04-24T04:27:44;2.65;;;0.90;;
54881;SDS011;40775;51.448;4.742;2023-04-24T04:30:19;2.25;;;0.85;;
54881;SDS011;40775;51.448;4.742;2023-04-24T04:32:49;2.40;;;0.55;;
54881;SDS011;40775;51.448;4.742;2023-04-24T04:35:20;1.63;;;0.80;;
54881;SDS011;40775;51.448;4.742;2023-04-24T04:37:48;5.25;;;1.13;;
54881;SDS011;40775;51.448;4.742;2023-04-24T04:40:19;0.90;;;0.50;;
54881;SDS011;40775;51.448;4.742;2023-04-24T04:42:47;1.30;;;0.38;;
54881;SDS011;40775;51.448;4.742;2023-04-24T04:45:19;1.58;;;0.77;;
54881;SDS011;40775;51.448;4.742;2023-04-24T04:47:51;2.95;;;0.85;;
54881;SDS011;40775;51.448;4.742;2023-04-24T04:50:18;2.53;;;1.00;;
54881;SDS011;40775;51.448;4.742;2023-04-24T04:52:47;1.80;;;1.08;;
54881;SDS011;40775;51.448;4.742;2023-04-24T04:55:14;1.60;;;0.70;;
54881;SDS011;40775;51.448;4.742;2023-04-24T04:57:41;2.60;;;0.98;;
54881;SDS011;40775;51.448;4.742;2023-04-24T05:00:14;3.75;;;1.25;;
54881;SDS011;40775;51.448;4.742;2023-04-24T05:02:45;2.70;;;0.95;;
54881;SDS011;40775;51.448;4.742;2023-04-24T05:05:12;3.47;;;0.98;;
54881;SDS011;40775;51.448;4.742;2023-04-24T05:07:39;3.28;;;1.27;;
54881;SDS011;40775;51.448;4.742;2023-04-24T05:10:07;1.98;;;0.77;;
54881;SDS011;40775;51.448;4.742;2023-04-24T05:12:47;2.42;;;0.93;;
54881;SDS011;40775;51.448;4.742;2023-04-24T05:15:19;4.00;;;1.48;;
54881;SDS011;40775;51.448;4.742;2023-04-24T05:17:46;1.42;;;0.90;;
54881;SDS011;40775;51.448;4.742;2023-04-24T05:20:13;2.60;;;1.25;;
54881;SDS011;40775;51.448;4.742;2023-04-24T05:22:41;4.53;;;1.35;;
54881;SDS011;40775;51.448;4.742;2023-04-24T05:25:08;2.53;;;1.05;;
54881;SDS011;40775;51.448;4.742;2023-04-24T05:27:35;5.35;;;1.67;;
54881;SDS011;40775;51.448;4.742;2023-04-24T05:30:02;2.75;;;1.15;;
54881;SDS011;40775;51.448;4.742;2023-04-24T05:32:30;3.78;;;2.03;;
54881;SDS011;40775;51.448;4.742;2023-04-24T05:34:57;2.53;;;1.35;;
54881;SDS011;40775;51.448;4.742;2023-04-24T05:37:24;8.82;;;2.75;;
54881;SDS011;40775;51.448;4.742;2023-04-24T05:39:52;4.65;;;2.13;;
54881;SDS011;40775;51.448;4.742;2023-04-24T05:42:19;4.68;;;2.03;;
54881;SDS011;40775;51.448;4.742;2023-04-24T05:44:46;3.83;;;1.95;;
54881;SDS011;40775;51.448;4.742;2023-04-24T05:47:13;10.30;;;4.05;;
54881;SDS011;40775;51.448;4.742;2023-04-24T05:49:40;5.53;;;2.85;;
54881;SDS011;40775;51.448;4.742;2023-04-24T05:52:07;3.95;;;2.40;;
54881;SDS011;40775;51.448;4.742;2023-04-24T05:54:35;6.45;;;3.05;;
54881;SDS011;40775;51.448;4.742;2023-04-24T05:57:02;4.53;;;2.63;;
54881;SDS011;40775;51.448;4.742;2023-04-24T05:59:35;4.45;;;2.45;;
54881;SDS011;40775;51.448;4.742;2023-04-24T06:02:04;5.25;;;3.38;;
54881;SDS011;40775;51.448;4.742;2023-04-24T06:04:32;7.07;;;3.22;;
54881;SDS011;40775;51.448;4.742;2023-04-24T06:07:00;7.50;;;3.47;;
54881;SDS011;40775;51.448;4.742;2023-04-24T06:09:27;5.30;;;2.92;;
54881;SDS011;40775;51.448;4.742;2023-04-24T06:11:54;4.82;;;2.60;;
54881;SDS011;40775;51.448;4.742;2023-04-24T06:14:22;7.72;;;3.28;;
54881;SDS011;40775;51.448;4.742;2023-04-24T06:16:49;7.20;;;3.95;;
54881;SDS011;40775;51.448;4.742;2023-04-24T06:19:17;8.52;;;3.60;;
54881;SDS011;40775;51.448;4.742;2023-04-24T06:21:44;8.85;;;4.10;;
54881;SDS011;40775;51.448;4.742;2023-04-24T06:24:13;7.97;;;3.72;;
54881;SDS011;40775;51.448;4.742;2023-04-24T06:26:42;8.15;;;3.63;;
54881;SDS011;40775;51.448;4.742;2023-04-24T06:29:09;10.43;;;3.97;;
54881;SDS011;40775;51.448;4.742;2023-04-24T06:31:36;8.52;;;3.33;;
54881;SDS011;40775;51.448;4.742;2023-04-24T06:34:03;5.70;;;3.38;;
54881;SDS011;40775;51.448;4.742;2023-04-24T06:36:30;5.78;;;3.10;;
54881;SDS011;40775;51.448;4.742;2023-04-24T06:39:00;8.45;;;3.30;;
54881;SDS011;40775;51.448;4.742;2023-04-24T06:41:28;7.80;;;2.97;;
54881;SDS011;40775;51.448;4.742;2023-04-24T06:43:55;8.05;;;2.75;;
54881;SDS011;40775;51.448;4.742;2023-04-24T06:46:22;6.18;;;3.17;;
54881;SDS011;40775;51.448;4.742;2023-04-24T06:48:52;7.43;;;3.30;;
54881;SDS011;40775;51.448;4.742;2023-04-24T06:51:23;6.57;;;3.00;;
54881;SDS011;40775;51.448;4.742;2023-04-24T06:53:52;10.98;;;3.33;;
54881;SDS011;40775;51.448;4.742;2023-04-24T06:56:19;5.75;;;3.08;;
54881;SDS011;40775;51.448;4.742;2023-04-24T06:58:47;5.95;;;2.55;;
54881;SDS011;40775;51.448;4.742;2023-04-24T07:01:14;6.22;;;2.70;;
54881;SDS011;40775;51.448;4.742;2023-04-24T07:03:41;6.50;;;3.30;;
54881;SDS011;40775;51.448;4.742;2023-04-24T07:06:09;5.13;;;2.33;;
54881;SDS011;40775;51.448;4.742;2023-04-24T07:08:38;4.75;;;2.58;;
54881;SDS011;40775;51.448;4.742;2023-04-24T07:11:08;7.65;;;2.75;;
54881;SDS011;40775;51.448;4.742;2023-04-24T07:13:35;9.10;;;3.25;;
54881;SDS011;40775;51.448;4.742;2023-04-24T07:16:02;9.85;;;2.85;;
54881;SDS011;40775;51.448;4.742;2023-04-24T07:18:29;8.27;;;2.45;;
54881;SDS011;40775;51.448;4.742;2023-04-24T07:20:56;9.45;;;3.55;;
54881;SDS011;40775;51.448;4.742;2023-04-24T07:23:23;6.00;;;3.00;;
54881;SDS011;40775;51.448;4.742;2023-04-24T07:25:51;6.82;;;3.25;;
54881;SDS011;40775;51.448;4.742;2023-04-24T07:28:18;4.57;;;2.63;;
54881;SDS011;40775;51.448;4.742;2023-04-24T07:30:45;6.95;;;3.05;;
54881;SDS011;40775;51.448;4.742;2023-04-24T07:33:12;5.93;;;2.78;;
54881;SDS011;40775;51.448;4.742;2023-04-24T07:35:39;7.97;;;2.63;;
54881;SDS011;40775;51.448;4.742;2023-04-24T07:38:06;7.78;;;3.15;;
54881;SDS011;40775;51.448;4.742;2023-04-24T07:40:33;11.02;;;3.22;;
54881;SDS011;40775;51.448;4.742;2023-04-24T07:43:01;5.10;;;2.38;;
54881;SDS011;40775;51.448;4.742;2023-04-24T07:45:28;8.63;;;3.30;;
54881;SDS011;40775;51.448;4.742;2023-04-24T07:47:55;4.35;;;2.47;;
54881;SDS011;40775;51.448;4.742;2023-04-24T07:50:23;4.97;;;2.25;;
54881;SDS011;40775;51.448;4.742;2023-04-24T07:52:50;8.80;;;2.55;;
54881;SDS011;40775;51.448;4.742;2023-04-24T07:55:17;4.35;;;1.65;;
54881;SDS011;40775;51.448;4.742;2023-04-24T07:57:47;6.00;;;2.30;;
54881;SDS011;40775;51.448;4.742;2023-04-24T08:00:14;5.40;;;2.13;;
54881;SDS011;40775;51.448;4.742;2023-04-24T08:02:42;4.63;;;1.77;;
54881;SDS011;40775;51.448;4.742;2023-04-24T08:05:09;5.82;;;2.45;;
54881;SDS011;40775;51.448;4.742;2023-04-24T08:07:36;8.65;;;3.10;;
54881;SDS011;40775;51.448;4.742;2023-04-24T08:10:04;11.95;;;2.90;;
54881;SDS011;40775;51.448;4.742;2023-04-24T08:12:32;4.65;;;1.92;;
54881;SDS011;40775;51.448;4.742;2023-04-24T08:14:59;10.15;;;3.30;;
54881;SDS011;40775;51.448;4.742;2023-04-24T08:17:26;10.85;;;3.47;;
54881;SDS011;40775;51.448;4.742;2023-04-24T08:19:53;3.47;;;1.60;;
54881;SDS011;40775;51.448;4.742;2023-04-24T08:22:28;4.70;;;1.85;;
54881;SDS011;40775;51.448;4.742;2023-04-24T08:24:55;3.40;;;1.70;;
54881;SDS011;40775;51.448;4.742;2023-04-24T08:27:23;1.90;;;1.15;;
54881;SDS011;40775;51.448;4.742;2023-04-24T08:29:52;3.25;;;1.60;;
54881;SDS011;40775;51.448;4.742;2023-04-24T08:32:20;5.65;;;1.38;;
54881;SDS011;40775;51.448;4.742;2023-04-24T08:34:47;2.60;;;1.55;;
54881;SDS011;40775;51.448;4.742;2023-04-24T08:37:15;8.50;;;2.35;;
54881;SDS011;40775;51.448;4.742;2023-04-24T08:39:42;4.45;;;1.77;;
54881;SDS011;40775;51.448;4.742;2023-04-24T08:42:09;8.10;;;2.42;;
54881;SDS011;40775;51.448;4.742;2023-04-24T08:44:39;8.85;;;3.13;;
54881;SDS011;40775;51.448;4.742;2023-04-24T08:47:07;7.07;;;2.13;;
54881;SDS011;40775;51.448;4.742;2023-04-24T08:49:35;8.93;;;2.50;;
54881;SDS011;40775;51.448;4.742;2023-04-24T08:52:06;9.35;;;1.58;;
54881;SDS011;40775;51.448;4.742;2023-04-24T08:54:37;5.28;;;1.90;;
54881;SDS011;40775;51.448;4.742;2023-04-24T08:57:04;3.35;;;1.40;;
54881;SDS011;40775;51.448;4.742;2023-04-24T08:59:35;4.80;;;1.90;;
54881;SDS011;40775;51.448;4.742;2023-04-24T09:02:04;4.55;;;1.98;;
54881;SDS011;40775;51.448;4.742;2023-04-24T09:04:32;9.40;;;1.98;;
54881;SDS011;40775;51.448;4.742;2023-04-24T09:07:01;6.05;;;1.75;;
54881;SDS011;40775;51.448;4.742;2023-04-24T09:09:30;5.57;;;1.70;;
54881;SDS011;40775;51.448;4.742;2023-04-24T09:11:59;5.13;;;2.13;;
54881;SDS011;40775;51.448;4.742;2023-04-24T09:14:27;5.00;;;1.77;;
54881;SDS011;40775;51.448;4.742;2023-04-24T09:16:54;7.32;;;1.50;;
54881;SDS011;40775;51.448;4.742;2023-04-24T09:19:21;10.27;;;1.83;;
54881;SDS011;40775;51.448;4.742;2023-04-24T09:21:48;4.13;;;1.42;;
54881;SDS011;40775;51.448;4.742;2023-04-24T09:24:19;3.92;;;1.33;;
54881;SDS011;40775;51.448;4.742;2023-04-24T09:26:57;4.07;;;1.70;;
54881;SDS011;40775;51.448;4.742;2023-04-24T09:29:25;5.40;;;1.48;;
54881;SDS011;40775;51.448;4.742;2023-04-24T09:31:52;6.82;;;1.20;;
54881;SDS011;40775;51.448;4.742;2023-04-24T09:34:23;6.22;;;1.60;;
54881;SDS011;40775;51.448;4.742;2023-04-24T09:36:53;4.68;;;1.73;;
54881;SDS011;40775;51.448;4.742;2023-04-24T09:39:20;4.80;;;1.85;;
54881;SDS011;40775;51.448;4.742;2023-04-24T09:41:49;0.50;;;0.50;;
54881;SDS011;40775;51.448;4.742;2023-04-24T09:44:27;4.82;;;0.85;;
54881;SDS011;40775;51.448;4.742;2023-04-24T09:46:58;3.65;;;1.10;;
54881;SDS011;40775;51.448;4.742;2023-04-24T09:49:29;1.27;;;0.75;;
54881;SDS011;40775;51.448;4.742;2023-04-24T09:52:03;2.83;;;0.95;;
54881;SDS011;40775;51.448;4.742;2023-04-24T09:54:37;1.33;;;0.70;;
54881;SDS011;40775;51.448;4.742;2023-04-24T09:57:07;3.00;;;0.95;;
54881;SDS011;40775;51.448;4.742;2023-04-24T09:59:35;2.08;;;1.02;;
54881;SDS011;40775;51.448;4.742;2023-04-24T10:02:17;1.20;;;0.60;;
54881;SDS011;40775;51.448;4.742;2023-04-24T10:04:55;2.20;;;0.85;;
54881;SDS011;40775;51.448;4.742;2023-04-24T10:07:26;1.15;;;0.35;;
54881;SDS011;40775;51.448;4.742;2023-04-24T10:09:53;1.55;;;0.40;;
54881;SDS011;40775;51.448;4.742;2023-04-24T10:12:21;3.55;;;0.70;;
54881;SDS011;40775;51.448;4.742;2023-04-24T10:14:49;1.65;;;0.68;;
54881;SDS011;40775;51.448;4.742;2023-04-24T10:17:17;4.38;;;1.20;;
54881;SDS011;40775;51.448;4.742;2023-04-24T10:19:47;3.92;;;0.73;;
54881;SDS011;40775;51.448;4.742;2023-04-24T10:22:14;1.98;;;0.55;;
54881;SDS011;40775;51.448;4.742;2023-04-24T10:24:43;2.47;;;1.10;;
54881;SDS011;40775;51.448;4.742;2023-04-24T10:27:11;1.83;;;0.73;;
54881;SDS011;40775;51.448;4.742;2023-04-24T10:29:41;3.80;;;0.47;;
54881;SDS011;40775;51.448;4.742;2023-04-24T10:32:11;3.55;;;1.10;;
54881;SDS011;40775;51.448;4.742;2023-04-24T10:34:38;1.55;;;0.68;;
54881;SDS011;40775;51.448;4.742;2023-04-24T10:37:05;7.28;;;0.93;;
54881;SDS011;40775;51.448;4.742;2023-04-24T10:39:33;1.30;;;0.60;;
54881;SDS011;40775;51.448;4.742;2023-04-24T10:42:01;2.30;;;0.60;;
54881;SDS011;40775;51.448;4.742;2023-04-24T10:44:35;1.08;;;0.60;;
54881;SDS011;40775;51.448;4.742;2023-04-24T10:47:03;2.38;;;0.70;;
54881;SDS011;40775;51.448;4.742;2023-04-24T10:49:31;2.42;;;0.63;;
54881;SDS011;40775;51.448;4.742;2023-04-24T10:52:04;2.20;;;0.73;;
54881;SDS011;40775;51.448;4.742;2023-04-24T10:54:42;0.57;;;0.40;;
54881;SDS011;40775;51.448;4.742;2023-04-24T11:00:36;0.68;;;0.22;;
54881;SDS011;40775;51.448;4.742;2023-04-24T11:02:48;0.28;;;0.20;;
54881;SDS011;40775;51.448;4.742;2023-04-24T11:05:17;1.10;;;0.40;;
54881;SDS011;40775;51.448;4.742;2023-04-24T11:10:46;1.90;;;0.60;;
54881;SDS011;40775;51.448;4.742;2023-04-24T11:13:24;1.08;;;0.43;;
54881;SDS011;40775;51.448;4.742;2023-04-24T11:18:52;1.33;;;0.60;;
54881;SDS011;40775;51.448;4.742;2023-04-24T11:21:32;0.70;;;0.40;;
54881;SDS011;40775;51.448;4.742;2023-04-24T11:26:58;3.85;;;0.85;;
54881;SDS011;40775;51.448;4.742;2023-04-24T11:33:10;0.63;;;0.40;;
54881;SDS011;40775;51.448;4.742;2023-04-24T11:35:19;4.88;;;1.10;;
54881;SDS011;40775;51.448;4.742;2023-04-24T11:37:52;2.88;;;0.70;;
54881;SDS011;40775;51.448;4.742;2023-04-24T11:40:23;2.30;;;0.60;;
54881;SDS011;40775;51.448;4.742;2023-04-24T11:42:52;1.25;;;0.50;;
54881;SDS011;40775;51.448;4.742;2023-04-24T11:45:24;2.13;;;0.70;;
54881;SDS011;40775;51.448;4.742;2023-04-24T11:47:56;2.15;;;0.55;;
54881;SDS011;40775;51.448;4.742;2023-04-24T11:50:25;1.23;;;0.65;;
54881;SDS011;40775;51.448;4.742;2023-04-24T11:52:55;1.25;;;0.75;;
54881;SDS011;40775;51.448;4.742;2023-04-24T11:57:54;5.15;;;0.90;;
54881;SDS011;40775;51.448;4.742;2023-04-24T12:00:26;1.27;;;0.57;;
54881;SDS011;40775;51.448;4.742;2023-04-24T12:03:08;0.55;;;0.30;;
54881;SDS011;40775;51.448;4.742;2023-04-24T12:05:38;0.90;;;0.55;;
54881;SDS011;40775;51.448;4.742;2023-04-24T12:08:06;4.25;;;1.25;;
54881;SDS011;40775;51.448;4.742;2023-04-24T12:10:34;3.42;;;1.23;;
54881;SDS011;40775;51.448;4.742;2023-04-24T12:13:01;1.63;;;0.55;;
54881;SDS011;40775;51.448;4.742;2023-04-24T12:15:28;2.03;;;0.85;;
54881;SDS011;40775;51.448;4.742;2023-04-24T12:17:56;3.40;;;0.60;;
54881;SDS011;40775;51.448;4.742;2023-04-24T12:20:24;6.55;;;0.85;;
54881;SDS011;40775;51.448;4.742;2023-04-24T12:22:55;0.68;;;0.40;;
54881;SDS011;40775;51.448;4.742;2023-04-24T12:25:25;1.80;;;0.98;;
54881;SDS011;40775;51.448;4.742;2023-04-24T12:30:31;2.58;;;0.77;;
54881;SDS011;40775;51.448;4.742;2023-04-24T12:33:01;5.53;;;0.98;;
54881;SDS011;40775;51.448;4.742;2023-04-24T12:35:31;1.08;;;0.63;;
54881;SDS011;40775;51.448;4.742;2023-04-24T12:38:06;1.95;;;0.82;;
54881;SDS011;40775;51.448;4.742;2023-04-24T12:40:36;0.90;;;0.30;;
54881;SDS011;40775;51.448;4.742;2023-04-24T12:43:12;3.17;;;0.60;;
54881;SDS011;40775;51.448;4.742;2023-04-24T12:45:41;1.88;;;0.52;;
54881;SDS011;40775;51.448;4.742;2023-04-24T12:48:09;3.67;;;0.80;;
54881;SDS011;40775;51.448;4.742;2023-04-24T12:50:36;2.50;;;0.70;;
54881;SDS011;40775;51.448;4.742;2023-04-24T12:53:04;2.33;;;0.77;;
54881;SDS011;40775;51.448;4.742;2023-04-24T12:55:34;2.75;;;0.95;;
54881;SDS011;40775;51.448;4.742;2023-04-24T12:58:03;6.88;;;1.08;;
54881;SDS011;40775;51.448;4.742;2023-04-24T13:00:30;5.18;;;1.40;;
54881;SDS011;40775;51.448;4.742;2023-04-24T13:02:58;3.78;;;0.85;;
54881;SDS011;40775;51.448;4.742;2023-04-24T13:05:25;3.90;;;0.90;;
54881;SDS011;40775;51.448;4.742;2023-04-24T13:07:53;2.38;;;1.25;;
54881;SDS011;40775;51.448;4.742;2023-04-24T13:10:21;1.83;;;0.82;;
54881;SDS011;40775;51.448;4.742;2023-04-24T13:12:48;2.95;;;1.20;;
54881;SDS011;40775;51.448;4.742;2023-04-24T13:15:15;2.65;;;0.98;;
54881;SDS011;40775;51.448;4.742;2023-04-24T13:17:42;2.80;;;1.40;;
54881;SDS011;40775;51.448;4.742;2023-04-24T13:20:09;1.25;;;0.88;;
54881;SDS011;40775;51.448;4.742;2023-04-24T13:22:37;2.30;;;1.13;;
54881;SDS011;40775;51.448;4.742;2023-04-24T13:25:04;6.13;;;1.27;;
54881;SDS011;40775;51.448;4.742;2023-04-24T13:27:32;4.25;;;1.02;;
54881;SDS011;40775;51.448;4.742;2023-04-24T13:29:59;1.90;;;0.95;;
54881;SDS011;40775;51.448;4.742;2023-04-24T13:32:29;1.38;;;1.08;;
54881;SDS011;40775;51.448;4.742;2023-04-24T13:34:56;1.52;;;0.85;;
54881;SDS011;40775;51.448;4.742;2023-04-24T13:37:23;2.22;;;1.20;;
54881;SDS011;40775;51.448;4.742;2023-04-24T13:39:50;2.33;;;1.13;;
54881;SDS011;40775;51.448;4.742;2023-04-24T13:42:17;1.70;;;1.00;;
54881;SDS011;40775;51.448;4.742;2023-04-24T13:44:46;2.08;;;1.30;;
54881;SDS011;40775;51.448;4.742;2023-04-24T13:47:13;3.40;;;1.40;;
54881;SDS011;40775;51.448;4.742;2023-04-24T13:49:40;2.42;;;1.27;;
54881;SDS011;40775;51.448;4.742;2023-04-24T13:52:07;0.75;;;0.63;;
54881;SDS011;40775;51.448;4.742;2023-04-24T13:54:36;1.58;;;0.70;;
54881;SDS011;40775;51.448;4.742;2023-04-24T13:57:03;2.28;;;0.60;;
54881;SDS011;40775;51.448;4.742;2023-04-24T13:59:30;2.38;;;0.98;;
54881;SDS011;40775;51.448;4.742;2023-04-24T14:01:58;2.35;;;0.93;;
54881;SDS011;40775;51.448;4.742;2023-04-24T14:04:25;2.33;;;0.88;;
54881;SDS011;40775;51.448;4.742;2023-04-24T14:06:52;2.80;;;0.60;;
54881;SDS011;40775;51.448;4.742;2023-04-24T14:09:19;1.88;;;0.90;;
54881;SDS011;40775;51.448;4.742;2023-04-24T14:11:46;0.77;;;0.55;;
54881;SDS011;40775;51.448;4.742;2023-04-24T14:14:13;2.97;;;0.98;;
54881;SDS011;40775;51.448;4.742;2023-04-24T14:16:40;1.92;;;0.70;;
54881;SDS011;40775;51.448;4.742;2023-04-24T14:19:07;1.98;;;0.60;;
54881;SDS011;40775;51.448;4.742;2023-04-24T14:21:34;3.03;;;1.13;;
54881;SDS011;40775;51.448;4.742;2023-04-24T14:24:01;2.22;;;0.80;;
54881;SDS011;40775;51.448;4.742;2023-04-24T14:26:29;3.42;;;0.70;;
54881;SDS011;40775;51.448;4.742;2023-04-24T14:28:56;1.65;;;0.90;;
54881;SDS011;40775;51.448;4.742;2023-04-24T14:31:39;1.73;;;0.60;;
54881;SDS011;40775;51.448;4.742;2023-04-24T14:34:07;4.05;;;0.80;;
54881;SDS011;40775;51.448;4.742;2023-04-24T14:36:34;2.55;;;0.73;;
54881;SDS011;40775;51.448;4.742;2023-04-24T14:39:01;0.82;;;0.50;;
54881;SDS011;40775;51.448;4.742;2023-04-24T14:41:33;2.33;;;0.90;;
54881;SDS011;40775;51.448;4.742;2023-04-24T14:44:03;1.73;;;0.88;;
54881;SDS011;40775;51.448;4.742;2023-04-24T14:46:31;3.15;;;1.20;;
54881;SDS011;40775;51.448;4.742;2023-04-24T14:48:58;4.63;;;1.27;;
54881;SDS011;40775;51.448;4.742;2023-04-24T14:51:25;1.20;;;0.60;;
54881;SDS011;40775;51.448;4.742;2023-04-24T14:53:53;1.13;;;0.50;;
54881;SDS011;40775;51.448;4.742;2023-04-24T14:56:20;1.60;;;0.57;;
54881;SDS011;40775;51.448;4.742;2023-04-24T14:58:47;0.82;;;0.60;;
54881;SDS011;40775;51.448;4.742;2023-04-24T15:01:15;3.58;;;0.77;;
54881;SDS011;40775;51.448;4.742;2023-04-24T15:03:43;2.38;;;0.77;;
54881;SDS011;40775;51.448;4.742;2023-04-24T15:06:11;2.03;;;0.68;;
54881;SDS011;40775;51.448;4.742;2023-04-24T15:08:38;1.55;;;0.57;;
54881;SDS011;40775;51.448;4.742;2023-04-24T15:11:05;1.02;;;0.50;;
54881;SDS011;40775;51.448;4.742;2023-04-24T15:13:32;4.15;;;0.77;;